Time;durP1;ratioP1;P1;durP2;ratioP2;P2;SDS_P1;SDS_P2;PMS_P1;PMS_P2;Temp;Humidity;BMP_temperature;BMP_pressure;BME280_temperature;BME280_humidity;BME280_pressure;Samples;Min_cycle;Max_cycle;Signal;HPM_P1;HPM_P2
2023/06/22 00:01:00;;;;;;;4.55;3.90;;;16.40;99.90;;;;;;5023196;28;20093;-62
2023/06/22 00:03:27;;;;;;;3.35;3.13;;;16.30;99.90;;;;;;5026267;28;20045;-63
2023/06/22 00:05:54;;;;;;;4.53;3.95;;;16.30;99.90;;;;;;5021741;28;20576;-63
2023/06/22 00:08:20;;;;;;;4.47;4.05;;;16.30;99.90;;;;;;5020953;28;20128;-62
2023/06/22 00:10:49;;;;;;;;;;;16.30;99.90;;;;;;5012359;28;20097;-63
2023/06/22 00:13:17;;;;;;;5.88;4.32;;;16.30;99.90;;;;;;5025601;28;19975;-63
2023/06/22 00:15:44;;;;;;;7.57;4.97;;;16.30;99.90;;;;;;5025736;28;20545;-62
2023/06/22 00:18:13;;;;;;;6.40;5.05;;;16.30;99.90;;;;;;5020576;28;20484;-62
2023/06/22 00:20:39;;;;;;;6.72;5.07;;;16.20;99.90;;;;;;5017955;28;20042;-62
2023/06/22 00:23:09;;;;;;;9.52;4.80;;;16.20;99.90;;;;;;5027888;28;20395;-62
2023/06/22 00:25:42;;;;;;;6.30;4.57;;;16.20;99.90;;;;;;5026092;28;20085;-63
2023/06/22 00:28:08;;;;;;;8.88;5.78;;;16.20;99.90;;;;;;5025533;28;20049;-62
2023/06/22 00:30:35;;;;;;;7.10;6.28;;;16.20;99.90;;;;;;5029296;28;20079;-62
2023/06/22 00:33:01;;;;;;;6.13;5.53;;;16.20;99.90;;;;;;5029164;28;20037;-62
2023/06/22 00:35:31;;;;;;;8.88;5.57;;;16.20;99.90;;;;;;5022099;28;20128;-62
2023/06/22 00:38:00;;;;;;;7.28;4.82;;;16.20;99.90;;;;;;5023115;28;20041;-63
2023/06/22 00:40:36;;;;;;;5.73;5.20;;;16.20;99.90;;;;;;5015595;28;20456;-62
2023/06/22 00:43:03;;;;;;;7.22;5.13;;;16.20;99.90;;;;;;5018961;28;20312;-62
2023/06/22 00:45:29;;;;;;;7.85;5.88;;;16.20;99.90;;;;;;5027777;28;20037;-62
2023/06/22 00:47:59;;;;;;;7.38;6.20;;;16.10;99.90;;;;;;5029200;28;20531;-62
2023/06/22 00:50:33;;;;;;;6.70;5.32;;;16.10;99.90;;;;;;5011261;28;20068;-62
2023/06/22 00:53:11;;;;;;;7.70;5.32;;;16.00;99.90;;;;;;5028643;28;20479;-62
2023/06/22 00:55:43;;;;;;;6.15;4.97;;;16.10;99.90;;;;;;5029207;28;20051;-62
2023/06/22 00:58:11;;;;;;;6.88;5.82;;;16.00;99.90;;;;;;5028236;28;20042;-62
2023/06/22 01:00:39;;;;;;;7.72;5.70;;;16.00;99.90;;;;;;5029076;28;20046;-62
2023/06/22 01:03:08;;;;;;;9.90;6.20;;;16.00;99.90;;;;;;5028695;28;20041;-62
2023/06/22 01:05:36;;;;;;;8.63;6.93;;;15.90;99.90;;;;;;5016198;28;20053;-62
2023/06/22 01:08:05;;;;;;;6.68;5.70;;;15.90;99.90;;;;;;5017383;28;20080;-62
2023/06/22 01:11:01;;;;;;;7.55;5.85;;;16.00;99.90;;;;;;5014141;28;20158;-62
2023/06/22 01:13:57;;;;;;;7.80;6.30;;;16.00;99.90;;;;;;4993193;28;20123;-62
2023/06/22 01:16:36;;;;;;;6.85;4.82;;;15.90;99.90;;;;;;5007715;28;20053;-62
2023/06/22 01:19:34;;;;;;;6.30;4.40;;;15.80;99.90;;;;;;5027968;28;20077;-62
2023/06/22 01:22:01;;;;;;;6.40;5.72;;;15.70;99.90;;;;;;5010081;28;20100;-62
2023/06/22 01:24:49;;;;;;;7.68;5.80;;;15.70;99.90;;;;;;5016916;28;20057;-62
2023/06/22 01:27:36;;;;;;;7.05;5.50;;;15.70;99.90;;;;;;5013852;28;20553;-62
2023/06/22 01:30:05;;;;;;;8.00;6.07;;;15.60;99.90;;;;;;5018150;28;20050;-62
2023/06/22 01:32:34;;;;;;;8.27;6.68;;;15.60;99.90;;;;;;5020116;28;20049;-62
2023/06/22 01:35:03;;;;;;;9.52;6.43;;;15.60;99.90;;;;;;5017291;28;20133;-63
2023/06/22 01:37:32;;;;;;;11.30;7.32;;;15.60;99.90;;;;;;5014389;28;20049;-62
2023/06/22 01:39:59;;;;;;;9.25;6.40;;;15.70;99.90;;;;;;5017857;28;20050;-62
2023/06/22 01:42:26;;;;;;;8.57;6.65;;;15.70;99.90;;;;;;5013212;28;20124;-62
2023/06/22 01:44:53;;;;;;;9.35;6.80;;;15.70;99.90;;;;;;5019712;28;20064;-62
2023/06/22 01:47:24;;;;;;;6.53;5.93;;;15.80;99.90;;;;;;5012131;28;20042;-62
2023/06/22 01:49:54;;;;;;;6.80;6.07;;;15.80;99.90;;;;;;5014778;28;20483;-62
2023/06/22 01:52:23;;;;;;;;;;;15.80;99.90;;;;;;5008579;28;20072;-62
2023/06/22 01:54:49;;;;;;;7.22;5.10;;;15.90;99.90;;;;;;5016342;28;19925;-62
2023/06/22 01:57:16;;;;;;;7.47;6.07;;;15.90;99.90;;;;;;5011584;28;20085;-62
2023/06/22 01:59:59;;;;;;;6.22;5.38;;;15.80;99.90;;;;;;4997973;28;20132;-62
2023/06/22 02:02:31;;;;;;;8.65;5.97;;;15.70;99.90;;;;;;5013649;28;20045;-62
2023/06/22 02:05:06;;;;;;;6.82;5.15;;;15.70;99.90;;;;;;5015114;28;20184;-63
2023/06/22 02:07:38;;;;;;;6.70;5.15;;;15.60;99.90;;;;;;5057034;23;20104;-63
2023/06/22 02:10:07;;;;;;;6.60;5.78;;;15.50;99.90;;;;;;5009379;28;20108;-62
2023/06/22 02:12:36;;;;;;;7.00;5.70;;;15.50;99.90;;;;;;5009161;28;20042;-62
2023/06/22 02:15:02;;;;;;;9.02;6.10;;;15.40;99.90;;;;;;5009253;28;20045;-62
2023/06/22 02:17:32;;;;;;;8.38;6.45;;;15.40;99.90;;;;;;5006197;28;20062;-62
2023/06/22 02:20:01;;;;;;;7.80;5.80;;;15.50;99.90;;;;;;5007175;28;20120;-62
2023/06/22 02:22:28;;;;;;;7.80;6.45;;;15.50;99.90;;;;;;5008842;28;20049;-62
2023/06/22 02:24:56;;;;;;;6.88;6.03;;;15.40;99.90;;;;;;5009105;28;20046;-62
2023/06/22 02:27:22;;;;;;;7.13;6.43;;;15.40;99.90;;;;;;5008622;28;20046;-62
2023/06/22 02:29:48;;;;;;;7.97;6.10;;;15.30;99.90;;;;;;5009548;28;20124;-62
2023/06/22 02:32:17;;;;;;;7.20;5.88;;;15.30;99.90;;;;;;5007396;28;20049;-62
2023/06/22 02:34:47;;;;;;;5.50;4.97;;;15.30;99.90;;;;;;5007087;28;20034;-62
2023/06/22 02:37:14;;;;;;;7.30;5.57;;;15.30;99.90;;;;;;5008309;28;20053;-62
2023/06/22 02:39:41;;;;;;;8.73;6.60;;;15.30;99.90;;;;;;5008997;28;20053;-62
2023/06/22 02:42:08;;;;;;;7.45;6.05;;;15.30;99.90;;;;;;5005682;28;20103;-62
2023/06/22 02:44:34;;;;;;;9.98;6.70;;;15.30;99.90;;;;;;5007884;28;20688;-62
2023/06/22 02:49:45;;;;;;;7.60;5.82;;;15.30;99.90;;;;;;4986503;28;20450;-62
2023/06/22 02:52:12;;;;;;;8.23;6.32;;;15.30;99.90;;;;;;4997498;28;20496;-62
2023/06/22 02:54:38;;;;;;;8.70;6.57;;;15.50;99.90;;;;;;4987338;28;20112;-62
2023/06/22 02:57:05;;;;;;;8.93;6.22;;;15.60;99.90;;;;;;4987853;28;20092;-62
2023/06/22 02:59:31;;;;;;;6.40;5.22;;;15.60;99.90;;;;;;4994433;28;20578;-62
2023/06/22 03:01:58;;;;;;;8.15;5.82;;;15.70;99.90;;;;;;4982423;28;20065;-62
2023/06/22 03:04:26;;;;;;;5.78;5.13;;;15.80;99.90;;;;;;4978139;28;20054;-62
2023/06/22 03:06:52;;;;;;;6.90;5.80;;;15.90;99.90;;;;;;4988401;28;20046;-62
2023/06/22 03:09:20;;;;;;;7.50;5.43;;;15.90;99.90;;;;;;4987168;28;20042;-62
2023/06/22 03:11:47;;;;;;;6.65;5.10;;;15.90;99.90;;;;;;4987279;28;20058;-62
2023/06/22 03:14:14;;;;;;;7.13;5.15;;;15.90;99.90;;;;;;4988570;28;20415;-62
2023/06/22 03:16:40;;;;;;;5.05;4.53;;;16.00;99.90;;;;;;4983317;28;20057;-62
2023/06/22 03:19:07;;;;;;;7.03;4.97;;;16.10;99.90;;;;;;4988163;28;20061;-62
2023/06/22 03:21:33;;;;;;;5.93;5.35;;;16.00;99.90;;;;;;4986485;28;20042;-63
2023/06/22 03:23:59;;;;;;;8.40;5.53;;;16.00;99.90;;;;;;4988241;28;20464;-62
2023/06/22 03:26:26;;;;;;;6.43;5.22;;;15.90;99.90;;;;;;4986731;28;20333;-63
2023/06/22 03:28:58;;;;;;;7.68;6.13;;;15.90;99.90;;;;;;4987660;28;20388;-63
2023/06/22 03:31:25;;;;;;;5.70;5.13;;;15.90;99.90;;;;;;4987673;28;20436;-62
2023/06/22 03:33:51;;;;;;;5.35;4.32;;;15.90;99.90;;;;;;4986461;28;20042;-63
2023/06/22 03:36:18;;;;;;;7.80;5.03;;;15.80;99.90;;;;;;4987754;28;20121;-63
2023/06/22 03:38:49;;;;;;;5.25;4.75;;;15.80;99.90;;;;;;4973253;28;20042;-63
2023/06/22 03:41:16;;;;;;;5.30;4.55;;;15.80;99.90;;;;;;4982495;28;20047;-63
2023/06/22 03:43:42;;;;;;;4.90;4.40;;;15.80;99.90;;;;;;4986250;28;20125;-63
2023/06/22 03:46:09;;;;;;;7.10;4.70;;;15.90;99.90;;;;;;4987940;28;20039;-63
2023/06/22 03:48:35;;;;;;;5.35;4.80;;;15.90;99.90;;;;;;4986572;28;20451;-62
2023/06/22 03:51:05;;;;;;;6.68;4.97;;;15.90;99.90;;;;;;4986703;28;20105;-63
2023/06/22 03:53:32;;;;;;;6.85;5.03;;;16.00;99.90;;;;;;4987843;28;20054;-62
2023/06/22 03:56:01;;;;;;;6.38;4.50;;;16.10;99.90;;;;;;4986463;28;20046;-63
2023/06/22 03:58:32;;;;;;;4.57;4.05;;;16.10;99.90;;;;;;4991192;28;20105;-63
2023/06/22 04:00:59;;;;;;;4.20;3.90;;;16.20;99.90;;;;;;4990884;28;20042;-62
2023/06/22 04:03:26;;;;;;;4.80;4.20;;;16.30;99.90;;;;;;4991211;28;20112;-63
2023/06/22 04:05:54;;;;;;;8.23;4.28;;;16.40;99.90;;;;;;4991076;28;20178;-63
2023/06/22 04:08:20;;;;;;;5.78;4.30;;;16.40;99.90;;;;;;4991074;28;20491;-63
2023/06/22 04:10:47;;;;;;;6.50;3.88;;;16.50;99.90;;;;;;4973680;28;20046;-63
2023/06/22 04:13:13;;;;;;;5.43;4.25;;;16.60;99.90;;;;;;4989673;28;20476;-63
2023/06/22 04:15:40;;;;;;;8.82;4.50;;;16.80;99.90;;;;;;4991215;28;20042;-62
2023/06/22 04:18:06;;;;;;;5.68;4.57;;;16.80;99.90;;;;;;4989819;28;20043;-63
2023/06/22 04:20:33;;;;;;;10.00;4.35;;;16.90;99.90;;;;;;4992380;28;20097;-63
2023/06/22 04:22:59;;;;;;;6.25;4.95;;;17.00;99.90;;;;;;4990219;28;20049;-63
2023/06/22 04:25:26;;;;;;;4.57;4.18;;;17.10;99.90;;;;;;4990369;28;20050;-63
2023/06/22 04:27:52;;;;;;;5.43;4.13;;;17.20;99.90;;;;;;4990529;28;20121;-63
2023/06/22 04:30:19;;;;;;;5.70;4.50;;;17.20;99.90;;;;;;4992580;28;20594;-63
2023/06/22 04:32:45;;;;;;;7.35;4.55;;;17.30;99.90;;;;;;4990710;28;20046;-63
2023/06/22 04:35:12;;;;;;;4.38;3.55;;;17.40;99.90;;;;;;4989625;28;20046;-63
2023/06/22 04:37:39;;;;;;;4.32;3.85;;;17.40;99.90;;;;;;4990236;28;20153;-64
2023/06/22 04:40:06;;;;;;;5.25;4.07;;;17.40;99.90;;;;;;4990784;28;20042;-63
2023/06/22 04:42:36;;;;;;;4.28;3.38;;;17.40;99.90;;;;;;4972978;28;20117;-63
2023/06/22 04:45:02;;;;;;;;;;;17.40;99.90;;;;;;4991353;28;20046;-63
2023/06/22 04:47:28;;;;;;;4.00;3.60;;;17.40;99.90;;;;;;4989178;28;19925;-62
2023/06/22 04:49:55;;;;;;;4.50;3.53;;;17.40;99.90;;;;;;4973430;28;20085;-63
2023/06/22 04:52:24;;;;;;;3.78;3.38;;;17.40;99.90;;;;;;5000625;28;20050;-63
2023/06/22 04:54:57;;;;;;;5.90;3.70;;;17.50;99.90;;;;;;4990339;28;20127;-63
2023/06/22 04:57:31;;;;;;;3.53;3.17;;;17.50;99.90;;;;;;4988410;28;20038;-63
2023/06/22 05:00:11;;;;;;;3.55;3.10;;;17.50;99.90;;;;;;4973480;28;20385;-63
2023/06/22 05:02:40;;;;;;;6.03;3.90;;;17.60;99.90;;;;;;4990173;28;20046;-63
2023/06/22 05:05:07;;;;;;;4.65;3.80;;;17.60;99.90;;;;;;4988619;28;20483;-63
2023/06/22 05:07:34;;;;;;;6.28;4.20;;;17.70;99.90;;;;;;4989555;28;20049;-63
2023/06/22 05:10:04;;;;;;;6.88;4.65;;;17.70;99.90;;;;;;4984041;28;20559;-62
2023/06/22 05:12:31;;;;;;;5.90;4.68;;;17.90;99.90;;;;;;4990055;28;20042;-63
2023/06/22 05:14:58;;;;;;;4.72;4.32;;;18.10;99.90;;;;;;4989639;28;20614;-62
2023/06/22 05:17:25;;;;;;;5.57;4.85;;;18.20;99.90;;;;;;4989597;28;20506;-62
2023/06/22 05:19:51;;;;;;;6.18;5.10;;;18.30;99.90;;;;;;5002818;28;20042;-62
2023/06/22 05:22:18;;;;;;;6.38;4.80;;;18.30;99.90;;;;;;4988745;28;20377;-63
2023/06/22 05:24:44;;;;;;;6.90;5.07;;;18.40;99.90;;;;;;4989875;28;20408;-63
2023/06/22 05:27:11;;;;;;;8.95;5.93;;;18.50;99.90;;;;;;4988618;28;20104;-63
2023/06/22 05:29:38;;;;;;;7.68;5.40;;;18.50;99.90;;;;;;5000643;28;20042;-63
2023/06/22 05:32:06;;;;;;;7.28;4.68;;;18.60;99.90;;;;;;4989360;28;20081;-62
2023/06/22 05:34:32;;;;;;;9.55;5.90;;;18.60;99.90;;;;;;4987672;28;20869;-62
2023/06/22 05:36:59;;;;;;;5.70;5.22;;;18.60;99.90;;;;;;4989698;28;20063;-63
2023/06/22 05:39:26;;;;;;;8.40;6.28;;;18.60;99.90;;;;;;4998206;28;20479;-62
2023/06/22 05:41:52;;;;;;;6.97;5.22;;;18.60;99.90;;;;;;4989563;28;20050;-63
2023/06/22 05:44:19;;;;;;;8.27;5.82;;;18.70;99.90;;;;;;4988134;28;20125;-62
2023/06/22 05:46:48;;;;;;;7.60;5.75;;;18.80;99.90;;;;;;4989560;28;20464;-62
2023/06/22 05:49:15;;;;;;;7.28;6.35;;;18.80;99.90;;;;;;4989148;28;20050;-63
2023/06/22 05:51:41;;;;;;;6.20;5.18;;;18.80;99.90;;;;;;5002573;28;20046;-63
2023/06/22 05:54:08;;;;;;;6.43;5.78;;;18.80;99.90;;;;;;4988992;28;20085;-63
2023/06/22 05:56:35;;;;;;;9.50;6.57;;;18.90;99.90;;;;;;4988163;28;20054;-63
2023/06/22 05:59:02;;;;;;;8.80;6.25;;;18.90;99.90;;;;;;4989205;28;20042;-62
2023/06/22 06:01:28;;;;;;;7.90;6.40;;;18.90;99.90;;;;;;4988275;28;20038;-63
2023/06/22 06:03:54;;;;;;;11.75;6.80;;;19.00;99.90;;;;;;4988984;28;20046;-63
2023/06/22 06:06:22;;;;;;;11.35;7.30;;;19.10;99.90;;;;;;4987712;28;20045;-63
2023/06/22 06:08:50;;;;;;;10.13;6.38;;;19.30;99.90;;;;;;4988574;28;20117;-63
2023/06/22 06:11:16;;;;;;;9.00;6.82;;;19.40;99.90;;;;;;4972373;28;20049;-63
2023/06/22 06:13:43;;;;;;;7.00;5.88;;;19.40;99.90;;;;;;4987855;28;20050;-63
2023/06/22 06:16:09;;;;;;;10.85;7.68;;;19.40;99.90;;;;;;4988342;28;20469;-63
2023/06/22 06:18:37;;;;;;;11.77;7.03;;;19.50;99.90;;;;;;4987496;28;20046;-63
2023/06/22 06:21:03;;;;;;;11.57;7.43;;;19.40;99.90;;;;;;4988785;28;20044;-62
2023/06/22 06:23:30;;;;;;;7.90;6.30;;;19.40;99.90;;;;;;4992243;28;20525;-62
2023/06/22 06:25:57;;;;;;;8.73;5.70;;;19.50;99.90;;;;;;4988667;28;20077;-62
2023/06/22 06:28:25;;;;;;;7.03;5.93;;;19.50;99.90;;;;;;4988514;28;20046;-62
2023/06/22 06:30:51;;;;;;;7.00;5.35;;;19.60;99.90;;;;;;4994363;28;20039;-63
2023/06/22 06:33:18;;;;;;;6.05;5.45;;;19.60;99.90;;;;;;4988107;28;20053;-62
2023/06/22 06:35:44;;;;;;;6.60;4.82;;;19.70;99.90;;;;;;4987339;28;20408;-63
2023/06/22 06:38:12;;;;;;;6.63;4.43;;;19.80;99.90;;;;;;4988026;28;20042;-63
2023/06/22 06:40:38;;;;;;;3.97;3.20;;;19.80;99.90;;;;;;4977878;28;20046;-63
2023/06/22 06:43:05;;;;;;;5.57;3.75;;;19.90;99.90;;;;;;4987986;28;20046;-63
2023/06/22 06:45:34;;;;;;;3.25;2.95;;;20.00;99.90;;;;;;4987449;28;20042;-63
2023/06/22 06:48:00;;;;;;;3.23;3.03;;;20.00;99.90;;;;;;4986600;28;20598;-63
2023/06/22 06:50:28;;;;;;;5.88;3.60;;;20.00;99.90;;;;;;4969451;28;20293;-63
2023/06/22 06:52:58;;;;;;;5.57;3.97;;;20.10;99.90;;;;;;4961454;28;20574;-62
2023/06/22 06:55:25;;;;;;;3.80;3.45;;;20.10;99.90;;;;;;4987378;28;20052;-63
2023/06/22 06:57:52;;;;;;;2.95;2.78;;;20.20;99.90;;;;;;4996143;28;20157;-63
2023/06/22 07:00:21;;;;;;;4.63;3.05;;;20.30;99.90;;;;;;4993462;28;20042;-63
2023/06/22 07:02:48;;;;;;;3.95;3.63;;;20.40;99.90;;;;;;4984901;28;20601;-63
2023/06/22 07:05:14;;;;;;;3.85;3.50;;;20.40;99.90;;;;;;4985508;28;20451;-63
2023/06/22 07:07:44;;;;;;;2.75;2.50;;;20.50;99.90;;;;;;4986276;28;20117;-63
2023/06/22 07:10:10;;;;;;;3.33;3.03;;;20.60;99.90;;;;;;4979568;28;20152;-63
2023/06/22 07:12:37;;;;;;;4.60;2.75;;;20.70;99.70;;;;;;4982698;28;20046;-63
2023/06/22 07:15:05;;;;;;;2.53;2.38;;;20.80;98.60;;;;;;4984862;28;20078;-63
2023/06/22 07:17:32;;;;;;;2.85;2.50;;;20.90;99.90;;;;;;4989483;28;20047;-64
2023/06/22 07:19:58;;;;;;;2.13;1.92;;;21.00;96.90;;;;;;4985364;28;20129;-63
2023/06/22 07:22:25;;;;;;;5.25;2.50;;;21.10;96.10;;;;;;4968786;28;20038;-63
2023/06/22 07:24:51;;;;;;;2.58;2.38;;;21.20;92.60;;;;;;4986032;28;20098;-62
2023/06/22 07:27:21;;;;;;;2.90;2.60;;;21.20;93.30;;;;;;4992291;28;20050;-63
2023/06/22 07:29:47;;;;;;;5.28;2.20;;;21.30;95.10;;;;;;4986931;28;20515;-63
2023/06/22 07:32:14;;;;;;;2.55;2.35;;;21.20;91.70;;;;;;4982015;28;20049;-63
2023/06/22 07:34:41;;;;;;;2.40;2.20;;;21.30;94.00;;;;;;4985391;28;20061;-63
2023/06/22 07:37:07;;;;;;;3.55;2.35;;;21.20;91.20;;;;;;4985294;28;20046;-63
2023/06/22 07:39:34;;;;;;;2.83;2.03;;;21.20;85.70;;;;;;4976448;28;20472;-63
2023/06/22 07:42:00;;;;;;;5.50;2.40;;;21.30;91.40;;;;;;4991902;28;20057;-63
2023/06/22 07:44:27;;;;;;;5.45;2.22;;;21.50;93.30;;;;;;4985585;28;20361;-63
2023/06/22 07:46:53;;;;;;;3.63;2.30;;;21.80;92.60;;;;;;4985197;28;20562;-63
2023/06/22 07:49:20;;;;;;;2.45;2.15;;;22.30;92.90;;;;;;4987187;28;20092;-63
2023/06/22 07:51:46;;;;;;;2.47;2.38;;;22.50;70.00;;;;;;4994020;28;20481;-63
2023/06/22 07:54:15;;;;;;;3.20;2.53;;;22.70;74.50;;;;;;4993399;28;20461;-63
2023/06/22 07:56:42;;;;;;;4.22;3.00;;;22.80;75.70;;;;;;4991209;28;20057;-62
2023/06/22 07:59:09;;;;;;;2.63;2.42;;;22.90;71.70;;;;;;4974730;28;20051;-63
2023/06/22 08:01:36;;;;;;;3.42;2.80;;;23.20;73.60;;;;;;4990287;28;20046;-63
2023/06/22 08:04:05;;;;;;;2.78;2.58;;;23.20;60.20;;;;;;4986339;28;20047;-63
2023/06/22 08:06:32;;;;;;;2.90;2.63;;;23.40;48.40;;;;;;4991708;28;20077;-63
2023/06/22 08:08:59;;;;;;;5.00;2.97;;;23.50;50.40;;;;;;4991597;28;20062;-63
2023/06/22 08:11:25;;;;;;;4.70;3.50;;;23.60;49.60;;;;;;4973108;28;20074;-62
2023/06/22 08:13:54;;;;;;;4.07;3.22;;;23.80;47.00;;;;;;4985937;28;20542;-62
2023/06/22 08:16:21;;;;;;;3.20;2.92;;;24.00;46.10;;;;;;4985397;28;20078;-62
2023/06/22 08:18:48;;;;;;;2.88;2.67;;;24.10;33.00;;;;;;4985662;28;20057;-62
2023/06/22 08:21:14;;;;;;;3.33;2.75;;;24.20;24.10;;;;;;4985557;28;20042;-62
2023/06/22 08:23:41;;;;;;;3.63;3.08;;;24.20;30.50;;;;;;4985280;28;20050;-62
2023/06/22 08:26:07;;;;;;;3.15;2.47;;;24.40;30.60;;;;;;4976486;28;20168;-62
2023/06/22 08:28:34;;;;;;;2.80;2.60;;;24.50;11.20;;;;;;4990243;28;20042;-62
2023/06/22 08:31:02;;;;;;;3.15;2.47;;;24.60;17.40;;;;;;4993032;28;20048;-62
2023/06/22 08:33:30;;;;;;;3.35;3.05;;;24.60;4.30;;;;;;4990070;28;20054;-63
2023/06/22 08:35:58;;;;;;;4.32;3.72;;;24.60;15.60;;;;;;4985433;28;20547;-62
2023/06/22 08:38:24;;;;;;;5.78;3.45;;;24.60;10.60;;;;;;4982257;28;20415;-63
2023/06/22 08:40:51;;;;;;;3.22;2.90;;;24.60;11.40;;;;;;4982865;28;20120;-62
2023/06/22 08:43:18;;;;;;;3.33;3.05;;;24.70;1.40;;;;;;4988794;28;20125;-62
2023/06/22 08:45:45;;;;;;;3.33;2.90;;;24.60;9.50;;;;;;5001037;28;20057;-62
2023/06/22 08:48:12;;;;;;;3.15;2.63;;;24.60;4.00;;;;;;4998336;28;20600;-62
2023/06/22 08:50:40;;;;;;;3.17;2.63;;;24.70;17.60;;;;;;4987356;28;20054;-62
2023/06/22 08:53:06;;;;;;;3.03;2.75;;;24.90;13.50;;;;;;4988357;28;20046;-63
2023/06/22 08:55:34;;;;;;;3.10;2.78;;;25.00;5.50;;;;;;4978552;28;20042;-63
2023/06/22 08:58:00;;;;;;;4.60;2.78;;;25.30;10.40;;;;;;4981489;28;20046;-63
2023/06/22 09:00:29;;;;;;;2.95;2.72;;;25.40;8.50;;;;;;4985656;28;20097;-63
2023/06/22 09:02:58;;;;;;;3.23;2.63;;;25.40;1.00;;;;;;4970382;28;20053;-63
2023/06/22 09:05:26;;;;;;;4.63;2.63;;;25.50;1.00;;;;;;4977248;28;20282;-63
2023/06/22 09:07:56;;;;;;;2.67;2.40;;;25.60;1.00;;;;;;4970539;28;20627;-63
2023/06/22 09:10:22;;;;;;;2.42;2.33;;;25.50;1.00;;;;;;4988271;28;20038;-63
2023/06/22 09:12:49;;;;;;;3.00;2.38;;;25.40;1.00;;;;;;4988380;28;20042;-63
2023/06/22 09:15:18;;;;;;;2.72;2.40;;;25.40;1.00;;;;;;4987841;28;20047;-63
2023/06/22 09:17:54;;;;;;;5.57;2.35;;;25.50;1.00;;;;;;4986565;28;20061;-62
2023/06/22 09:20:20;;;;;;;2.22;2.13;;;25.60;1.00;;;;;;4988085;28;20066;-63
2023/06/22 09:22:47;;;;;;;2.25;2.05;;;25.70;1.00;;;;;;4984531;28;20584;-63
2023/06/22 09:25:13;;;;;;;4.20;1.95;;;25.70;1.00;;;;;;4987284;28;20165;-63
2023/06/22 09:27:40;;;;;;;2.72;2.50;;;25.70;1.00;;;;;;4987803;28;20408;-64
2023/06/22 09:30:07;;;;;;;2.75;1.63;;;25.70;1.00;;;;;;4987704;28;20039;-63
2023/06/22 09:32:34;;;;;;;2.60;2.40;;;25.70;1.00;;;;;;4989934;28;20050;-63
2023/06/22 09:35:05;;;;;;;2.30;2.10;;;25.80;1.00;;;;;;4987177;28;20074;-63
2023/06/22 09:37:32;;;;;;;1.83;1.73;;;25.60;1.00;;;;;;4979992;28;20049;-63
2023/06/22 09:39:58;;;;;;;2.17;1.98;;;25.60;1.00;;;;;;4981545;28;20046;-63
2023/06/22 09:42:25;;;;;;;2.22;2.05;;;25.80;1.00;;;;;;4979872;28;20509;-63
2023/06/22 09:44:51;;;;;;;2.60;2.35;;;25.70;1.00;;;;;;4982970;28;20165;-63
2023/06/22 09:47:18;;;;;;;3.15;2.00;;;25.60;1.00;;;;;;4985119;28;20053;-63
2023/06/22 09:49:45;;;;;;;2.50;2.20;;;25.50;1.00;;;;;;4973595;28;20833;-63
2023/06/22 09:52:12;;;;;;;2.08;1.98;;;25.10;1.00;;;;;;4985977;28;20535;-63
2023/06/22 09:54:38;;;;;;;3.28;2.50;;;25.10;1.00;;;;;;4985100;28;20116;-63
2023/06/22 09:57:06;;;;;;;2.28;1.80;;;25.30;1.00;;;;;;4987335;28;20121;-63
2023/06/22 09:59:33;;;;;;;1.98;1.77;;;25.40;1.00;;;;;;4978280;28;20115;-63
2023/06/22 10:02:00;;;;;;;2.53;2.08;;;25.40;1.00;;;;;;4987104;28;20137;-62
2023/06/22 10:04:26;;;;;;;2.20;2.00;;;25.50;1.00;;;;;;4986245;28;20118;-63
2023/06/22 10:06:53;;;;;;;2.17;2.03;;;25.70;1.00;;;;;;4987177;28;20050;-63
2023/06/22 10:09:19;;;;;;;2.70;1.75;;;25.70;1.00;;;;;;4982424;28;20073;-63
2023/06/22 10:11:46;;;;;;;2.28;2.08;;;25.90;1.00;;;;;;4977495;28;20046;-63
2023/06/22 10:14:12;;;;;;;2.80;2.20;;;26.00;1.00;;;;;;4987307;28;20038;-63
2023/06/22 10:16:40;;;;;;;2.88;2.25;;;25.90;1.00;;;;;;4986281;28;20050;-63
2023/06/22 10:19:07;;;;;;;2.40;2.30;;;25.80;1.00;;;;;;4987588;28;20054;-63
2023/06/22 10:21:34;;;;;;;2.35;1.98;;;25.90;1.00;;;;;;4986843;28;20747;-64
2023/06/22 10:24:05;;;;;;;2.88;1.75;;;25.90;1.00;;;;;;4981177;28;20497;-64
2023/06/22 10:26:33;;;;;;;3.83;2.28;;;25.90;1.00;;;;;;4973209;28;20046;-63
2023/06/22 10:29:00;;;;;;;4.15;2.35;;;26.00;1.00;;;;;;4987005;28;20053;-64
2023/06/22 10:31:27;;;;;;;2.20;2.10;;;26.00;1.00;;;;;;4986334;28;20097;-64
2023/06/22 10:33:55;;;;;;;2.65;2.13;;;25.80;1.00;;;;;;4983240;28;20132;-64
2023/06/22 10:36:22;;;;;;;1.75;1.65;;;25.80;1.00;;;;;;4987898;28;20054;-63
2023/06/22 10:38:49;;;;;;;2.45;1.90;;;25.80;1.00;;;;;;4995475;28;20047;-63
2023/06/22 10:41:16;;;;;;;2.78;2.00;;;25.90;1.00;;;;;;4969539;28;20116;-63
2023/06/22 10:43:43;;;;;;;2.05;1.95;;;26.00;1.00;;;;;;4986783;28;20517;-64
2023/06/22 10:46:10;;;;;;;2.78;1.80;;;25.90;1.00;;;;;;4985231;28;20046;-64
2023/06/22 10:48:36;;;;;;;2.33;2.13;;;26.00;1.00;;;;;;4978041;28;20055;-64
2023/06/22 10:51:03;;;;;;;4.38;2.25;;;26.00;1.00;;;;;;4966657;28;20572;-63
2023/06/22 10:53:29;;;;;;;3.45;2.05;;;26.00;1.00;;;;;;4966672;28;20051;-64
2023/06/22 10:55:56;;;;;;;1.95;1.85;;;25.90;1.00;;;;;;4946338;28;20513;-63
2023/06/22 10:58:22;;;;;;;2.00;1.80;;;25.60;1.00;;;;;;4950669;28;20058;-64
2023/06/22 11:00:49;;;;;;;1.85;1.50;;;25.50;1.00;;;;;;4962316;28;20050;-64
2023/06/22 11:03:16;;;;;;;1.65;1.48;;;25.70;1.00;;;;;;4952073;28;20106;-63
2023/06/22 11:05:43;;;;;;;2.05;1.85;;;25.70;1.00;;;;;;4960349;28;20054;-63
2023/06/22 11:08:09;;;;;;;2.58;1.60;;;25.80;1.00;;;;;;4951552;28;20489;-64
2023/06/22 11:10:36;;;;;;;1.83;1.73;;;26.00;1.00;;;;;;4965536;28;20046;-64
2023/06/22 11:13:04;;;;;;;1.77;1.67;;;26.10;1.00;;;;;;4949169;28;20046;-66
2023/06/22 11:15:30;;;;;;;1.92;1.83;;;26.10;1.00;;;;;;4966785;28;20041;-66
2023/06/22 11:17:56;;;;;;;1.73;1.60;;;26.30;1.00;;;;;;4966715;28;20506;-66
2023/06/22 11:20:23;;;;;;;2.65;2.05;;;26.40;1.00;;;;;;4948851;28;20050;-66
2023/06/22 11:22:55;;;;;;;2.17;1.70;;;26.40;1.00;;;;;;4966784;28;20514;-66
2023/06/22 11:25:22;;;;;;;3.67;2.10;;;26.40;1.00;;;;;;4966703;28;20086;-66
2023/06/22 11:27:48;;;;;;;2.38;2.10;;;26.40;1.00;;;;;;4966294;28;20082;-66
2023/06/22 11:30:15;;;;;;;2.78;2.47;;;26.30;1.00;;;;;;4966361;28;20098;-67
2023/06/22 11:32:41;;;;;;;5.20;1.83;;;26.30;1.00;;;;;;4965297;28;20401;-66
2023/06/22 11:35:08;;;;;;;1.88;1.77;;;26.20;1.00;;;;;;4966943;28;20405;-67
2023/06/22 11:37:34;;;;;;;2.08;1.27;;;26.10;1.00;;;;;;4958316;28;20057;-68
2023/06/22 11:40:04;;;;;;;2.47;2.00;;;26.00;1.00;;;;;;4966752;28;20070;-66
2023/06/22 11:42:31;;;;;;;2.05;1.80;;;25.80;1.00;;;;;;4964106;28;20039;-65
2023/06/22 11:44:57;;;;;;;2.10;2.00;;;25.70;1.00;;;;;;4966792;28;20463;-65
2023/06/22 11:47:24;;;;;;;4.47;1.80;;;25.70;1.00;;;;;;4966460;28;20101;-65
2023/06/22 11:49:50;;;;;;;2.25;1.88;;;25.80;1.00;;;;;;4966220;28;20085;-66
2023/06/22 11:52:17;;;;;;;2.38;1.92;;;25.80;1.00;;;;;;4960123;28;20043;-66
2023/06/22 11:54:44;;;;;;;2.45;1.67;;;25.80;1.00;;;;;;4965813;28;20537;-65
2023/06/22 11:57:10;;;;;;;2.60;2.13;;;25.80;1.00;;;;;;4949581;28;20046;-66
2023/06/22 11:59:36;;;;;;;1.55;1.45;;;25.60;1.00;;;;;;4965916;28;20476;-66
2023/06/22 12:02:05;;;;;;;2.25;1.77;;;25.50;1.00;;;;;;4965965;28;20432;-66
2023/06/22 12:04:31;;;;;;;2.47;1.60;;;25.50;1.00;;;;;;4965788;28;20050;-66
2023/06/22 12:06:58;;;;;;;1.70;1.60;;;25.50;1.00;;;;;;4964007;28;20215;-66
2023/06/22 12:09:25;;;;;;;1.95;1.70;;;25.40;1.00;;;;;;4966488;28;20551;-66
2023/06/22 12:11:51;;;;;;;1.95;1.85;;;25.50;1.00;;;;;;4965553;28;20046;-67
2023/06/22 12:14:18;;;;;;;2.10;1.52;;;25.40;1.00;;;;;;4966211;28;20054;-66
2023/06/22 12:16:44;;;;;;;1.60;1.50;;;25.40;1.00;;;;;;4954254;28;20046;-66
2023/06/22 12:19:11;;;;;;;1.52;1.40;;;25.40;1.00;;;;;;4969416;28;20523;-66
2023/06/22 12:21:40;;;;;;;1.50;1.40;;;25.50;1.00;;;;;;4969734;28;20051;-66
2023/06/22 12:24:07;;;;;;;1.70;1.60;;;25.50;1.00;;;;;;4969746;28;20054;-67
2023/06/22 12:26:33;;;;;;;3.50;2.80;;;25.50;1.00;;;;;;4956597;28;20043;-67
2023/06/22 12:29:00;;;;;;;3.40;3.10;;;25.30;1.00;;;;;;4970183;28;20086;-67
2023/06/22 12:31:26;;;;;;;3.35;2.90;;;25.20;1.00;;;;;;4969122;28;20073;-67
2023/06/22 12:33:53;;;;;;;3.50;2.50;;;25.20;1.00;;;;;;4968437;28;20050;-66
2023/06/22 12:36:19;;;;;;;4.22;2.63;;;25.10;1.00;;;;;;4969775;28;20082;-67
2023/06/22 12:38:46;;;;;;;4.05;2.92;;;25.00;1.00;;;;;;4968945;28;20058;-67
2023/06/22 12:41:12;;;;;;;2.38;2.17;;;24.80;1.00;;;;;;4969727;28;20047;-67
2023/06/22 12:43:38;;;;;;;2.78;2.40;;;24.80;1.50;;;;;;4968607;28;20047;-67
2023/06/22 12:46:05;;;;;;;3.20;2.80;;;24.90;1.00;;;;;;4969821;28;20051;-67
2023/06/22 12:48:32;;;;;;;2.85;2.47;;;24.90;1.00;;;;;;4951703;28;20059;-66
2023/06/22 12:50:58;;;;;;;2.85;2.30;;;24.90;1.00;;;;;;4986384;28;20061;-67
2023/06/22 12:53:27;;;;;;;2.67;2.47;;;25.00;1.00;;;;;;4988761;28;20485;-67
2023/06/22 12:55:53;;;;;;;3.08;2.88;;;25.00;3.50;;;;;;4984354;28;20139;-67